Terminal Aerodrome Forecast
Issued by NWS

Home | Current Version | Previous Version | Text Only | Print | Product List | Glossary On
Versions: 1 2 3 4 5 6 7 8 9 10 11 12 13 14 15
000
FTUS43 KOAX 281120
TAFBFF
TAF
KBFF 281120Z 2812/2912 13007KT P6SM SCT100
     FM281900 31010KT P6SM VCTS SCT050CB BKN080
      TEMPO 2821/2824 VRB23G35KT 2SM -TSRA BKN025 OVC050CB
     FM290200 04005KT P6SM BKN120=

USA.gov is the U.S. government's official web portal to all federal, state and local government web resources and services.